Time;durP1;ratioP1;P1;durP2;ratioP2;P2;SDS_P1;SDS_P2;PMS_P1;PMS_P2;Temp;Humidity;BMP_temperature;BMP_pressure;BME280_temperature;BME280_humidity;BME280_pressure;Samples;Min_cycle;Max_cycle;Signal;HPM_P1;HPM_P2
2023/02/23 00:02:18;;;;;;;13.20;9.97;;;8.20;99.90;;;;;;5038216;28;20190;-84
2023/02/23 00:04:45;;;;;;;11.47;9.33;;;8.20;99.90;;;;;;5068137;28;20302;-85
2023/02/23 00:07:12;;;;;;;12.37;9.83;;;8.20;99.90;;;;;;5059978;28;20198;-85
2023/02/23 00:09:41;;;;;;;13.63;9.60;;;8.10;99.90;;;;;;5060610;28;20199;-85
2023/02/23 00:12:08;;;;;;;13.53;9.90;;;8.10;99.90;;;;;;5074791;28;20195;-84
2023/02/23 00:14:40;;;;;;;11.07;9.77;;;8.10;99.90;;;;;;5074810;28;20293;-84
2023/02/23 00:17:17;;;;;;;12.93;9.40;;;8.10;99.90;;;;;;5071030;28;20557;-85
2023/02/23 00:19:47;;;;;;;12.87;9.40;;;8.20;99.90;;;;;;5051760;28;20186;-84
2023/02/23 00:22:14;;;;;;;13.47;10.20;;;8.20;99.90;;;;;;5058174;28;20184;-85
2023/02/23 00:24:42;;;;;;;11.67;10.10;;;8.20;99.90;;;;;;5060527;28;20241;-84
2023/02/23 00:27:08;;;;;;;12.67;9.67;;;8.10;99.90;;;;;;5071035;28;20340;-84
2023/02/23 00:29:38;;;;;;;12.67;9.77;;;8.20;99.90;;;;;;5054574;28;20220;-83
2023/02/23 00:32:07;;;;;;;12.57;9.77;;;8.10;99.90;;;;;;5048795;28;21038;-84
2023/02/23 00:34:35;;;;;;;12.63;10.27;;;8.10;99.90;;;;;;5060658;28;20195;-84
2023/02/23 00:37:03;;;;;;;13.80;10.20;;;8.10;99.90;;;;;;5057653;28;20201;-84
2023/02/23 00:39:29;;;;;;;12.43;9.30;;;8.10;99.90;;;;;;5072079;28;20312;-84
2023/02/23 00:42:01;;;;;;;12.10;9.73;;;8.10;99.90;;;;;;5057844;28;20182;-84
2023/02/23 00:44:32;;;;;;;11.43;9.43;;;8.00;99.90;;;;;;5058369;28;20191;-84
2023/02/23 00:47:00;;;;;;;12.10;10.07;;;8.10;99.90;;;;;;5057618;28;20187;-84
2023/02/23 00:49:43;;;;;;;12.13;10.00;;;8.10;99.90;;;;;;5046827;28;20187;-84
2023/02/23 00:52:13;;;;;;;11.70;9.50;;;8.10;99.90;;;;;;5074732;28;20186;-84
2023/02/23 00:54:50;;;;;;;12.17;10.03;;;8.10;99.90;;;;;;5057948;28;20199;-85
2023/02/23 00:57:16;;;;;;;12.50;9.53;;;8.10;99.90;;;;;;5073986;28;20198;-84
2023/02/23 00:59:56;;;;;;;16.47;9.90;;;8.20;99.90;;;;;;5071058;28;20266;-85
2023/02/23 01:02:23;;;;;;;13.63;10.27;;;8.20;99.90;;;;;;5062467;28;20260;-84
2023/02/23 01:04:50;;;;;;;13.40;10.23;;;8.20;99.90;;;;;;5056426;28;20201;-85
2023/02/23 01:07:16;;;;;;;13.93;10.23;;;8.20;99.90;;;;;;5051441;28;20226;-84
2023/02/23 01:09:42;;;;;;;13.83;9.87;;;8.30;99.90;;;;;;5045879;28;20187;-85
2023/02/23 01:12:15;;;;;;;12.57;9.87;;;8.20;99.90;;;;;;5070770;28;20205;-85
2023/02/23 01:14:42;;;;;;;16.27;9.90;;;8.20;99.90;;;;;;5058544;28;20215;-85
2023/02/23 01:17:08;;;;;;;12.47;10.00;;;8.20;99.90;;;;;;5044596;28;20258;-84
2023/02/23 01:19:34;;;;;;;13.37;9.70;;;8.20;99.90;;;;;;5055291;28;20183;-84
2023/02/23 01:22:01;;;;;;;13.30;10.27;;;8.20;99.90;;;;;;5057263;28;20175;-85
2023/02/23 01:24:28;;;;;;;16.33;10.33;;;8.20;99.90;;;;;;5057532;28;20708;-85
2023/02/23 01:26:55;;;;;;;12.73;10.07;;;8.20;99.90;;;;;;5072424;28;20194;-84
2023/02/23 01:29:21;;;;;;;14.20;10.30;;;8.10;99.90;;;;;;5056609;28;20183;-84
2023/02/23 01:31:52;;;;;;;11.93;9.67;;;8.10;99.90;;;;;;5056520;28;20198;-84
2023/02/23 01:34:22;;;;;;;12.67;9.90;;;8.10;99.90;;;;;;5085301;28;20652;-84
2023/02/23 01:36:49;;;;;;;11.33;10.10;;;8.10;99.90;;;;;;5059142;28;20190;-84
2023/02/23 01:39:19;;;;;;;13.07;10.13;;;8.10;99.90;;;;;;5055768;28;20285;-84
2023/02/23 01:41:45;;;;;;;11.17;9.37;;;8.10;99.90;;;;;;5056263;28;20179;-84
2023/02/23 01:44:12;;;;;;;10.97;9.80;;;8.10;99.90;;;;;;5087318;28;20275;-85
2023/02/23 01:46:44;;;;;;;13.33;10.23;;;8.10;99.90;;;;;;5068668;28;20192;-84
2023/02/23 01:49:18;;;;;;;11.93;10.27;;;8.10;99.90;;;;;;5035700;28;20183;-84
2023/02/23 01:52:09;;;;;;;11.70;10.50;;;8.10;99.90;;;;;;5072420;28;20190;-85
2023/02/23 01:54:50;;;;;;;14.40;10.57;;;8.20;99.90;;;;;;5046586;28;20203;-84
2023/02/23 01:57:20;;;;;;;14.03;10.83;;;8.20;99.90;;;;;;5055286;28;20240;-84
2023/02/23 01:59:50;;;;;;;12.03;10.43;;;8.10;99.90;;;;;;5089699;28;20183;-84
2023/02/23 02:02:22;;;;;;;13.17;9.97;;;8.10;99.90;;;;;;5066018;28;20228;-84
2023/02/23 02:04:50;;;;;;;11.90;9.70;;;8.10;99.90;;;;;;5051017;28;20200;-85
2023/02/23 02:07:22;;;;;;;14.70;10.20;;;8.10;99.90;;;;;;5054350;28;20191;-84
2023/02/23 02:12:50;;;;;;;11.97;10.03;;;8.10;99.90;;;;;;5071667;28;20225;-84
2023/02/23 02:15:18;;;;;;;12.93;9.40;;;8.20;99.90;;;;;;5071586;28;20203;-84
2023/02/23 02:18:32;;;;;;;12.73;10.00;;;8.20;99.90;;;;;;5064631;28;20202;-85
2023/02/23 02:22:03;;;;;;;11.10;9.60;;;8.10;99.90;;;;;;5079883;28;20281;-84
2023/02/23 02:24:57;;;;;;;10.97;9.20;;;8.10;99.90;;;;;;5022190;28;20206;-84
2023/02/23 02:27:51;;;;;;;11.07;9.67;;;8.10;99.90;;;;;;5086304;28;20258;-85
2023/02/23 02:30:44;;;;;;;11.10;9.87;;;8.10;99.90;;;;;;5055607;28;20198;-84
2023/02/23 02:34:21;;;;;;;12.60;9.63;;;8.00;99.90;;;;;;5069058;28;20596;-84
2023/02/23 02:37:19;;;;;;;11.90;9.77;;;8.10;99.90;;;;;;5068172;28;20206;-84
2023/02/23 02:40:31;;;;;;;13.33;10.23;;;8.00;99.90;;;;;;5050507;28;20191;-84
2023/02/23 02:43:49;;;;;;;14.23;9.17;;;8.00;99.90;;;;;;5064430;28;20205;-84
2023/02/23 02:46:39;;;;;;;13.63;9.33;;;8.00;99.90;;;;;;5068729;28;20187;-84
2023/02/23 02:49:22;;;;;;;12.80;8.93;;;8.00;99.90;;;;;;5053668;28;20478;-84
2023/02/23 02:52:23;;;;;;;11.37;9.77;;;8.00;99.90;;;;;;5071508;28;20186;-84
2023/02/23 02:55:00;;;;;;;12.47;10.00;;;8.00;99.90;;;;;;5070427;28;21016;-84
2023/02/23 02:57:29;;;;;;;11.13;9.93;;;8.00;99.90;;;;;;5079631;28;20193;-84
2023/02/23 04:18:34;;;;;;;14.27;11.93;;;9.30;99.90;;;;;;5073244;28;20186;-84
2023/02/23 04:21:02;;;;;;;14.53;11.47;;;9.40;99.90;;;;;;5068153;28;20191;-84
2023/02/23 04:23:30;;;;;;;13.20;11.37;;;9.40;99.90;;;;;;5050148;28;20759;-84
2023/02/23 04:25:57;;;;;;;14.10;11.57;;;9.40;99.90;;;;;;5088787;28;20801;-85
2023/02/23 04:28:28;;;;;;;14.40;11.33;;;9.40;99.90;;;;;;5070886;28;20183;-86
2023/02/23 04:30:54;;;;;;;14.87;11.27;;;9.40;99.90;;;;;;5062606;28;20189;-86
2023/02/23 04:33:21;;;;;;;13.87;11.03;;;9.40;99.90;;;;;;5056239;28;20233;-86
2023/02/23 04:35:48;;;;;;;14.63;12.00;;;9.40;99.90;;;;;;5056834;28;20194;-86
2023/02/23 04:38:14;;;;;;;13.27;11.77;;;9.50;99.90;;;;;;5069862;28;20183;-85
2023/02/23 04:40:41;;;;;;;17.60;11.57;;;9.50;99.90;;;;;;5088740;28;20184;-85
2023/02/23 04:43:10;;;;;;;13.90;11.00;;;9.50;99.90;;;;;;5050059;28;20784;-85
2023/02/23 04:45:37;;;;;;;14.43;11.67;;;9.50;99.90;;;;;;5070355;28;20304;-85
2023/02/23 04:48:03;;;;;;;13.27;10.40;;;9.50;99.90;;;;;;5072567;28;20905;-85
2023/02/23 04:50:39;;;;;;;12.37;11.07;;;9.50;99.90;;;;;;5070069;28;20183;-85
2023/02/23 04:53:08;;;;;;;14.73;10.40;;;9.50;99.90;;;;;;5065440;28;20261;-85
2023/02/23 04:55:34;;;;;;;13.50;11.13;;;9.50;99.90;;;;;;5056937;28;20210;-85
2023/02/23 04:58:01;;;;;;;14.55;12.45;;;9.50;99.90;;;;;;5056013;28;20517;-85
2023/02/23 05:00:28;;;;;;;13.90;11.85;;;9.50;99.90;;;;;;5055623;28;20428;-85
2023/02/23 05:02:56;;;;;;;14.50;10.07;;;9.50;99.90;;;;;;5057508;28;20635;-85
2023/02/23 05:05:22;;;;;;;12.57;10.07;;;9.50;99.90;;;;;;5057634;28;20214;-85
2023/02/23 05:07:49;;;;;;;11.23;10.03;;;9.50;99.90;;;;;;5074222;28;20247;-85
2023/02/23 05:10:15;;;;;;;12.53;9.27;;;9.50;99.90;;;;;;5080332;28;20187;-84
2023/02/23 05:12:45;;;;;;;11.50;9.93;;;9.60;99.90;;;;;;5088819;28;20186;-85
2023/02/23 05:15:12;;;;;;;12.00;9.20;;;9.60;99.90;;;;;;5072798;28;20199;-86
2023/02/23 05:17:42;;;;;;;11.47;9.47;;;9.60;99.90;;;;;;5071313;28;20187;-85
2023/02/23 05:20:13;;;;;;;14.67;10.27;;;9.60;99.90;;;;;;5069436;28;20670;-85
2023/02/23 05:22:39;;;;;;;12.03;9.97;;;9.70;99.90;;;;;;5055784;28;20261;-86
2023/02/23 05:25:07;;;;;;;12.17;9.93;;;9.80;99.90;;;;;;5070032;28;20261;-85
2023/02/23 05:27:35;;;;;;;12.82;10.90;;;9.90;99.90;;;;;;5052332;28;20490;-85
2023/02/23 05:30:02;;;;;;;10.50;9.40;;;10.00;99.90;;;;;;5049976;28;20543;-86
2023/02/23 05:32:29;;;;;;;12.13;9.50;;;10.00;99.90;;;;;;5056487;28;20198;-86
2023/02/23 05:34:55;;;;;;;13.00;9.40;;;10.10;99.90;;;;;;5071210;28;20668;-86
2023/02/23 05:37:21;;;;;;;12.73;9.60;;;10.10;99.90;;;;;;5090461;28;20210;-86
2023/02/23 05:39:48;;;;;;;13.30;10.57;;;10.10;99.90;;;;;;5053099;28;20183;-86
2023/02/23 05:42:15;;;;;;;11.33;9.50;;;10.10;99.90;;;;;;5063714;28;20183;-86
2023/02/23 05:44:42;;;;;;;14.27;10.10;;;10.10;99.90;;;;;;5088183;28;20190;-86
2023/02/23 05:47:09;;;;;;;12.70;9.40;;;10.10;99.90;;;;;;5089692;28;20191;-86
2023/02/23 05:49:37;;;;;;;11.50;9.03;;;10.10;99.90;;;;;;5072804;28;20190;-87
2023/02/23 05:52:04;;;;;;;15.37;9.47;;;10.10;99.90;;;;;;5055669;28;20260;-86
2023/02/23 05:54:30;;;;;;;10.60;9.07;;;10.10;99.90;;;;;;5070354;28;20195;-86
2023/02/23 05:56:56;;;;;;;10.73;9.03;;;10.10;99.90;;;;;;5051789;28;20187;-86
2023/02/23 05:59:23;;;;;;;14.37;9.77;;;10.20;99.90;;;;;;5072680;28;20190;-85
2023/02/23 06:01:49;;;;;;;10.37;9.03;;;10.20;99.90;;;;;;5073111;28;20183;-86
2023/02/23 06:04:16;;;;;;;13.20;9.37;;;10.20;99.90;;;;;;5055705;28;20285;-86
2023/02/23 06:06:42;;;;;;;11.77;8.87;;;10.20;99.90;;;;;;5074564;28;20187;-86
2023/02/23 06:09:11;;;;;;;9.03;8.00;;;10.00;99.90;;;;;;5052193;28;20194;-85
2023/02/23 06:11:37;;;;;;;11.70;8.00;;;9.70;99.90;;;;;;5048265;28;20540;-86
2023/02/23 06:14:04;;;;;;;11.27;8.03;;;9.60;99.90;;;;;;5055793;28;20271;-85
2023/02/23 06:16:30;;;;;;;11.07;7.93;;;9.50;99.90;;;;;;5087581;28;20228;-85
2023/02/23 06:18:56;;;;;;;10.70;7.73;;;9.50;99.90;;;;;;5079599;28;20989;-86
2023/02/23 06:21:23;;;;;;;10.43;8.00;;;9.50;99.90;;;;;;5050468;28;20193;-83
2023/02/23 06:23:51;;;;;;;11.60;8.10;;;9.60;99.90;;;;;;5056097;28;20195;-84
2023/02/23 06:26:17;;;;;;;10.73;8.13;;;9.60;99.90;;;;;;5088966;28;20190;-85
2023/02/23 06:28:44;;;;;;;9.17;7.87;;;9.70;99.90;;;;;;5080728;28;20315;-85
2023/02/23 06:31:10;;;;;;;10.00;7.10;;;9.70;99.90;;;;;;5071839;28;20556;-85
2023/02/23 06:33:37;;;;;;;11.50;7.37;;;9.70;99.90;;;;;;5051611;28;20890;-85
2023/02/23 06:36:04;;;;;;;10.73;7.87;;;9.70;99.90;;;;;;5054691;28;20212;-85
2023/02/23 06:38:30;;;;;;;8.83;7.40;;;9.70;99.90;;;;;;5055583;28;20178;-85
2023/02/23 06:40:57;;;;;;;8.43;7.07;;;9.70;99.90;;;;;;5072084;28;20855;-83
2023/02/23 06:43:24;;;;;;;9.10;7.03;;;9.70;99.90;;;;;;5054968;28;20541;-83
2023/02/23 06:45:51;;;;;;;8.37;7.10;;;9.60;99.90;;;;;;5054684;28;20167;-84
2023/02/23 06:48:17;;;;;;;9.17;6.77;;;9.60;99.90;;;;;;5072965;28;20183;-85
2023/02/23 06:50:44;;;;;;;12.77;7.17;;;9.60;99.90;;;;;;5070039;28;20655;-85
2023/02/23 06:53:10;;;;;;;10.73;7.40;;;9.60;99.90;;;;;;5055393;28;20187;-84
2023/02/23 06:55:36;;;;;;;10.37;7.50;;;9.60;99.90;;;;;;5068854;28;20203;-85
2023/02/23 06:58:03;;;;;;;10.87;7.23;;;9.60;99.90;;;;;;5070884;28;20203;-85
2023/02/23 07:00:30;;;;;;;13.27;7.83;;;9.60;99.90;;;;;;5052234;28;20187;-85
2023/02/23 07:02:58;;;;;;;10.47;7.43;;;9.60;99.90;;;;;;5060471;28;20259;-85
2023/02/23 07:05:34;;;;;;;8.03;7.23;;;9.60;99.90;;;;;;5087625;28;20190;-85
2023/02/23 07:08:01;;;;;;;10.30;7.47;;;9.80;99.90;;;;;;5071028;28;20220;-85
2023/02/23 07:10:27;;;;;;;11.17;8.23;;;10.00;99.90;;;;;;5052256;28;20193;-84
2023/02/23 07:12:53;;;;;;;11.13;7.40;;;10.00;99.90;;;;;;5088198;28;20213;-84
2023/02/23 07:15:20;;;;;;;9.30;7.40;;;10.10;99.90;;;;;;5072343;28;20207;-84
2023/02/23 07:17:48;;;;;;;12.33;7.40;;;10.20;99.90;;;;;;5086233;28;20182;-85
2023/02/23 07:20:18;;;;;;;8.97;7.50;;;10.30;99.90;;;;;;5051360;28;20257;-84
2023/02/23 07:22:45;;;;;;;8.33;6.80;;;10.30;99.90;;;;;;5050644;28;20218;-84
2023/02/23 07:25:13;;;;;;;11.67;7.50;;;10.30;99.90;;;;;;5066012;28;20291;-85
2023/02/23 07:27:41;;;;;;;10.27;7.53;;;10.50;99.90;;;;;;5071125;28;20195;-85
2023/02/23 07:30:08;;;;;;;9.53;7.30;;;10.60;99.90;;;;;;5085701;28;20247;-84
2023/02/23 07:32:35;;;;;;;8.53;6.80;;;10.50;99.90;;;;;;5053752;28;20213;-85
2023/02/23 07:35:07;;;;;;;10.77;7.13;;;10.50;99.90;;;;;;5086509;28;20203;-85
2023/02/23 07:37:33;;;;;;;10.07;6.80;;;10.50;99.90;;;;;;5070868;28;20194;-85
2023/02/23 07:39:59;;;;;;;10.37;6.80;;;10.60;99.90;;;;;;5062050;28;20214;-86
2023/02/23 07:42:26;;;;;;;8.20;7.20;;;10.60;99.90;;;;;;5071127;28;20186;-85
2023/02/23 07:44:55;;;;;;;11.70;6.90;;;10.80;99.90;;;;;;5051906;28;20252;-85
2023/02/23 07:47:29;;;;;;;9.67;7.20;;;10.90;99.90;;;;;;5074922;28;20182;-86
2023/02/23 07:50:19;;;;;;;11.63;7.20;;;11.00;99.90;;;;;;5084415;28;20211;-86
2023/02/23 07:53:26;;;;;;;10.93;7.60;;;11.40;99.90;;;;;;5074051;28;20270;-86
2023/02/23 07:56:05;;;;;;;12.27;7.30;;;11.70;99.90;;;;;;5043132;28;20192;-87
2023/02/23 07:58:46;;;;;;;12.67;6.57;;;11.60;99.90;;;;;;5080347;28;20202;-85
2023/02/23 08:01:18;;;;;;;10.57;6.80;;;11.60;99.90;;;;;;5085889;28;20178;-86
2023/02/23 08:04:08;;;;;;;9.37;6.80;;;11.50;99.90;;;;;;5066868;28;20277;-86
2023/02/23 08:06:45;;;;;;;8.23;7.43;;;11.80;99.90;;;;;;5063937;28;20186;-86
2023/02/23 08:09:18;;;;;;;11.07;7.37;;;11.90;99.90;;;;;;5075737;28;20193;-85
2023/02/23 08:11:45;;;;;;;11.93;7.40;;;12.00;99.90;;;;;;5071410;28;20191;-85
2023/02/23 08:14:22;;;;;;;9.37;7.00;;;11.90;99.90;;;;;;5055245;28;20199;-85
2023/02/23 08:17:00;;;;;;;7.00;6.27;;;11.90;99.90;;;;;;5061622;28;20191;-86
2023/02/23 08:19:29;;;;;;;12.80;6.57;;;11.80;99.90;;;;;;5061145;28;20893;-85
2023/02/23 08:22:00;;;;;;;9.27;6.40;;;11.70;99.90;;;;;;5091543;28;20217;-86
2023/02/23 08:24:33;;;;;;;6.93;5.73;;;11.60;99.90;;;;;;5066129;28;20184;-85
2023/02/23 08:27:05;;;;;;;6.70;5.17;;;11.60;99.90;;;;;;5090087;28;20255;-85
2023/02/23 08:29:33;;;;;;;9.63;5.83;;;11.50;99.90;;;;;;5053753;28;20191;-84
2023/02/23 08:32:03;;;;;;;8.47;6.03;;;11.50;99.90;;;;;;5052695;28;20203;-85
2023/02/23 08:34:41;;;;;;;10.90;6.00;;;11.40;99.90;;;;;;5068755;28;20210;-85
2023/02/23 08:37:16;;;;;;;10.20;6.43;;;11.40;99.90;;;;;;5078744;28;20198;-85
2023/02/23 08:40:08;;;;;;;8.20;6.17;;;11.40;99.90;;;;;;5064531;28;20410;-85
2023/02/23 08:43:01;;;;;;;9.23;6.00;;;11.50;99.90;;;;;;5083332;28;20206;-85
2023/02/23 08:46:01;;;;;;;9.80;6.00;;;11.40;99.90;;;;;;5045589;28;20202;-85
2023/02/23 08:48:47;;;;;;;8.80;6.10;;;12.00;99.90;;;;;;5042417;28;20195;-86
2023/02/23 08:51:24;;;;;;;7.10;5.50;;;12.20;99.90;;;;;;5037158;28;20317;-85
2023/02/23 08:54:13;;;;;;;8.23;5.60;;;12.00;99.90;;;;;;5033651;28;20211;-85
2023/02/23 08:56:59;;;;;;;7.47;5.10;;;12.20;99.90;;;;;;5059054;28;20192;-86
2023/02/23 08:59:54;;;;;;;10.40;5.67;;;12.10;99.90;;;;;;5021510;28;20199;-86
2023/02/23 09:02:31;;;;;;;7.43;5.77;;;12.30;99.90;;;;;;5032127;28;20187;-86
2023/02/23 09:05:03;;;;;;;10.03;5.27;;;12.60;99.90;;;;;;5022985;28;21430;-85
2023/02/23 09:07:43;;;;;;;11.57;5.40;;;12.40;99.90;;;;;;5028723;28;20192;-85
2023/02/23 09:10:26;;;;;;;8.83;5.20;;;12.60;99.90;;;;;;5046904;28;20314;-86
2023/02/23 09:12:57;;;;;;;8.57;5.60;;;13.00;99.90;;;;;;5019521;28;20818;-83
2023/02/23 09:15:24;;;;;;;6.77;5.40;;;13.00;99.90;;;;;;5031253;28;20203;-84
2023/02/23 09:17:53;;;;;;;9.73;5.57;;;13.00;99.90;;;;;;5038757;28;20183;-84
2023/02/23 09:20:25;;;;;;;8.27;5.43;;;13.10;99.90;;;;;;5031929;28;20276;-84
2023/02/23 09:23:17;;;;;;;8.20;5.50;;;13.20;99.90;;;;;;5035010;28;20191;-85
2023/02/23 09:25:48;;;;;;;10.90;5.53;;;13.30;99.90;;;;;;5043926;28;20215;-84
2023/02/23 09:29:00;;;;;;;6.40;4.90;;;13.10;99.90;;;;;;5063964;28;20215;-86
2023/02/23 09:31:32;;;;;;;8.17;5.13;;;13.40;99.90;;;;;;5066203;28;20190;-85
2023/02/23 09:34:02;;;;;;;10.73;5.27;;;13.60;99.90;;;;;;5094118;28;20207;-85
2023/02/23 09:36:53;;;;;;;9.57;5.13;;;13.70;99.90;;;;;;5062425;28;20183;-82
2023/02/23 09:40:38;;;;;;;7.87;5.30;;;14.00;99.90;;;;;;5061264;28;20174;-84
2023/02/23 09:44:43;;;;;;;7.10;4.47;;;14.00;99.90;;;;;;5084084;28;20261;-83
2023/02/23 09:48:37;;;;;;;7.93;4.80;;;14.00;99.90;;;;;;4987068;28;20203;-83
2023/02/23 09:55:32;;;;;;;9.27;5.20;;;14.30;99.90;;;;;;4961900;28;20204;-83
2023/02/23 09:58:19;;;;;;;9.40;4.60;;;14.50;99.90;;;;;;4964231;28;20775;-85
2023/02/23 10:01:22;;;;;;;10.60;4.80;;;14.30;99.90;;;;;;5067968;28;20183;-84
2023/02/23 10:04:27;;;;;;;8.47;4.30;;;14.10;99.90;;;;;;5053343;28;20205;-85
2023/02/23 10:07:32;;;;;;;7.73;5.00;;;14.00;99.90;;;;;;5064527;28;20186;-86
2023/02/23 10:11:14;;;;;;;6.70;4.27;;;13.90;99.90;;;;;;5081237;28;20183;-86
2023/02/23 10:15:09;;;;;;;6.53;4.20;;;14.10;99.90;;;;;;4984175;28;20289;-84
2023/02/23 10:18:18;;;;;;;15.20;4.63;;;14.30;99.90;;;;;;4905945;29;20207;-83
2023/02/23 10:25:08;;;;;;;7.33;4.53;;;14.70;99.90;;;;;;5003904;28;20184;-84
2023/02/23 10:28:04;;;;;;;8.17;4.40;;;14.80;99.90;;;;;;4998173;28;20184;-84
2023/02/23 10:30:53;;;;;;;7.60;4.67;;;15.10;99.90;;;;;;4990041;28;20251;-84
2023/02/23 10:34:05;;;;;;;6.27;3.90;;;15.40;99.90;;;;;;5006209;28;20296;-83
2023/02/23 10:36:48;;;;;;;6.30;4.20;;;15.20;99.90;;;;;;4989498;28;20196;-83
2023/02/23 10:39:19;;;;;;;7.47;4.37;;;14.70;99.90;;;;;;5021854;28;20227;-84
2023/02/23 10:42:17;;;;;;;10.27;5.00;;;14.10;99.90;;;;;;5008205;28;20228;-84
2023/02/23 10:45:40;;;;;;;6.23;4.53;;;14.20;99.90;;;;;;5050698;28;20547;-83
2023/02/23 10:48:41;;;;;;;7.83;4.50;;;14.00;99.90;;;;;;5060235;28;20190;-83
2023/02/23 10:51:42;;;;;;;6.57;4.83;;;14.00;99.90;;;;;;5061139;28;20212;-83
2023/02/23 10:54:54;;;;;;;5.73;4.70;;;14.00;99.90;;;;;;5074080;28;20194;-84
2023/02/23 10:57:52;;;;;;;;;;;;;;;;;;;;;
2023/02/23 11:00:32;;;;;;;9.90;4.50;;;13.80;99.90;;;;;;5068282;28;20195;-85
2023/02/23 11:03:02;;;;;;;8.30;4.53;;;14.70;99.90;;;;;;5070851;28;20199;-85
2023/02/23 11:06:05;;;;;;;7.20;4.10;;;15.30;99.90;;;;;;5084416;28;20276;-84
2023/02/23 11:08:50;;;;;;;7.07;4.00;;;16.00;99.90;;;;;;5077433;28;20186;-84
2023/02/23 11:11:41;;;;;;;6.43;3.87;;;16.60;99.90;;;;;;5074869;28;20186;-84
2023/02/23 11:15:42;;;;;;;6.17;3.90;;;16.60;99.90;;;;;;5086931;28;20218;-84
2023/02/23 11:18:33;;;;;;;6.53;3.80;;;16.70;99.90;;;;;;5062721;28;20280;-85
2023/02/23 11:25:27;;;;;;;8.07;4.20;;;16.30;99.90;;;;;;5078835;28;20913;-86
2023/02/23 11:28:43;;;;;;;6.80;4.60;;;15.60;99.90;;;;;;5011956;28;20198;-85
2023/02/23 11:31:34;;;;;;;6.17;4.00;;;15.30;99.90;;;;;;5011307;28;20326;-85
2023/02/23 11:34:23;;;;;;;5.90;4.10;;;15.50;99.90;;;;;;5029305;28;20889;-87
2023/02/23 11:41:10;;;;;;;5.87;3.60;;;15.90;99.90;;;;;;5039568;28;20198;-86
2023/02/23 11:43:57;;;;;;;7.97;4.20;;;15.70;99.90;;;;;;5041115;28;20195;-86
2023/02/23 11:46:49;;;;;;;;;;;;;;;;;;;;;
2023/02/23 11:49:46;;;;;;;6.47;4.00;;;15.70;99.90;;;;;;5039705;28;20417;-86
2023/02/23 11:52:28;;;;;;;9.50;4.30;;;15.30;99.90;;;;;;5057294;28;20196;-85
2023/02/23 11:55:06;;;;;;;6.70;3.90;;;15.00;99.90;;;;;;5033716;28;20203;-83
2023/02/23 11:57:42;;;;;;;6.97;3.80;;;15.10;99.90;;;;;;5016974;28;20815;-85
2023/02/23 12:00:26;;;;;;;9.37;3.40;;;15.10;99.90;;;;;;5037482;28;20806;-85
2023/02/23 12:02:59;;;;;;;7.10;3.93;;;15.20;99.90;;;;;;5040997;28;20627;-84
2023/02/23 12:05:32;;;;;;;6.27;3.90;;;15.00;99.90;;;;;;5024410;28;20876;-85
2023/02/23 12:08:33;;;;;;;8.13;4.00;;;15.00;99.90;;;;;;5009920;28;20187;-85
2023/02/23 12:11:20;;;;;;;8.40;4.13;;;15.30;99.90;;;;;;5029340;28;20195;-85
2023/02/23 12:14:02;;;;;;;8.10;3.70;;;15.50;99.90;;;;;;5032367;28;20237;-84
2023/02/23 12:16:58;;;;;;;5.43;3.70;;;15.60;99.90;;;;;;5021574;28;20192;-84
2023/02/23 12:20:03;;;;;;;5.30;3.70;;;15.70;99.90;;;;;;5071873;28;20199;-85
2023/02/23 12:22:59;;;;;;;5.43;3.50;;;15.60;99.90;;;;;;5016882;28;20274;-85
2023/02/23 12:27:00;;;;;;;8.03;4.20;;;15.70;99.90;;;;;;5078151;28;20201;-87
2023/02/23 12:29:59;;;;;;;6.20;3.93;;;15.70;99.90;;;;;;5071443;28;20195;-84
2023/02/23 12:32:45;;;;;;;5.77;3.57;;;15.50;99.90;;;;;;5080571;28;20194;-85
2023/02/23 12:35:57;;;;;;;8.00;3.83;;;15.40;99.90;;;;;;5066318;28;20242;-85
2023/02/23 12:39:20;;;;;;;10.03;4.10;;;15.30;99.90;;;;;;5073513;28;20179;-85
2023/02/23 12:42:42;;;;;;;7.57;4.27;;;15.20;99.90;;;;;;5074685;28;20281;-86
2023/02/23 12:45:36;;;;;;;5.87;4.10;;;14.90;99.90;;;;;;5076199;28;20191;-85
2023/02/23 12:48:38;;;;;;;7.20;3.90;;;14.50;99.90;;;;;;5083120;28;20199;-85
2023/02/23 12:51:43;;;;;;;6.43;3.87;;;14.90;99.90;;;;;;5071691;28;20182;-85
2023/02/23 12:54:25;;;;;;;9.13;4.57;;;14.90;99.90;;;;;;5078242;28;20232;-86
2023/02/23 12:57:55;;;;;;;4.97;4.10;;;14.60;99.90;;;;;;5070621;28;20190;-87
2023/02/23 13:01:02;;;;;;;9.30;4.17;;;14.90;99.90;;;;;;5011294;28;20184;-86
2023/02/23 13:04:45;;;;;;;5.80;4.00;;;14.90;99.90;;;;;;5010260;28;20197;-86
2023/02/23 13:08:23;;;;;;;9.63;4.87;;;14.90;99.90;;;;;;5011351;28;20185;-85
2023/02/23 13:12:14;;;;;;;9.30;4.53;;;14.70;99.90;;;;;;5001196;28;20222;-85
2023/02/23 13:15:18;;;;;;;5.13;4.10;;;14.70;99.90;;;;;;5031824;28;20618;-86
2023/02/23 13:18:41;;;;;;;6.77;4.43;;;14.70;99.90;;;;;;5081545;28;20202;-85
2023/02/23 13:21:25;;;;;;;7.30;4.40;;;14.30;99.90;;;;;;5074594;28;20214;-85
2023/02/23 13:24:44;;;;;;;6.50;4.50;;;13.90;99.90;;;;;;5055952;28;20261;-84
2023/02/23 13:27:43;;;;;;;5.80;4.43;;;13.60;99.90;;;;;;5046956;28;20194;-83
2023/02/23 13:30:23;;;;;;;7.50;4.50;;;13.60;99.90;;;;;;5076344;28;20233;-83
2023/02/23 13:33:15;;;;;;;;;;;;;;;;;;;;;
2023/02/23 13:36:16;;;;;;;10.97;5.53;;;13.80;99.90;;;;;;5064525;28;20256;-85
2023/02/23 13:39:51;;;;;;;9.30;4.57;;;13.90;99.90;;;;;;5058818;28;20183;-82
2023/02/23 13:43:22;;;;;;;7.57;5.20;;;13.60;99.90;;;;;;5003141;28;20193;-84
2023/02/23 13:47:06;;;;;;;6.80;4.93;;;13.50;99.90;;;;;;5031220;28;20198;-83
2023/02/23 13:50:37;;;;;;;;;;;;;;;;;;;;;
2023/02/23 13:53:39;;;;;;;8.27;4.93;;;13.40;99.90;;;;;;5051870;28;20184;-84
2023/02/23 13:56:29;;;;;;;10.93;5.90;;;13.30;99.90;;;;;;5059478;28;20226;-84
2023/02/23 13:59:14;;;;;;;9.07;5.60;;;13.20;99.90;;;;;;5064146;28;20187;-84
2023/02/23 14:01:46;;;;;;;7.63;5.47;;;13.20;99.90;;;;;;5058640;28;20265;-83
2023/02/23 14:04:26;;;;;;;6.53;5.20;;;13.00;99.90;;;;;;5053368;28;20200;-85
2023/02/23 14:07:17;;;;;;;8.67;4.80;;;12.90;99.90;;;;;;5069494;28;20187;-85
2023/02/23 14:10:06;;;;;;;6.37;4.90;;;12.80;99.90;;;;;;5052203;28;20240;-85
2023/02/23 14:12:40;;;;;;;7.57;4.70;;;12.60;99.90;;;;;;5068491;28;20190;-85
2023/02/23 14:15:36;;;;;;;5.93;4.77;;;12.50;99.90;;;;;;5078659;28;20178;-85
2023/02/23 14:18:30;;;;;;;8.13;5.00;;;12.40;99.90;;;;;;5081241;28;20193;-85
2023/02/23 14:21:23;;;;;;;6.40;5.40;;;12.40;99.90;;;;;;5027832;28;20222;-85
2023/02/23 14:24:10;;;;;;;9.93;5.43;;;12.30;99.90;;;;;;5057203;28;20188;-85
2023/02/23 14:27:05;;;;;;;8.63;5.20;;;12.40;99.90;;;;;;5081497;28;20230;-85
2023/02/23 14:30:04;;;;;;;9.23;4.57;;;12.60;99.90;;;;;;5055272;28;20191;-85
2023/02/23 14:32:37;;;;;;;8.33;4.67;;;13.00;99.90;;;;;;5086897;28;20186;-86
2023/02/23 14:35:35;;;;;;;9.13;4.97;;;13.00;99.90;;;;;;5045067;28;20245;-84
2023/02/23 14:38:23;;;;;;;5.37;4.00;;;13.20;99.90;;;;;;5023374;28;20206;-86
2023/02/23 14:40:53;;;;;;;8.77;4.60;;;13.30;99.90;;;;;;5053855;28;20253;-85
2023/02/23 14:43:40;;;;;;;5.83;4.70;;;13.20;99.90;;;;;;5080978;28;20187;-85
2023/02/23 14:46:23;;;;;;;5.43;4.00;;;13.10;99.90;;;;;;5095639;28;20198;-85
2023/02/23 14:49:16;;;;;;;6.70;4.53;;;13.00;99.90;;;;;;5051251;28;20198;-85
2023/02/23 14:52:35;;;;;;;5.17;4.37;;;12.80;99.90;;;;;;5059933;28;20218;-85
2023/02/23 14:55:14;;;;;;;7.43;4.60;;;12.60;99.90;;;;;;5073172;28;20222;-85
2023/02/23 14:57:42;;;;;;;11.63;4.50;;;12.30;99.90;;;;;;5066876;28;20195;-85
2023/02/23 15:00:34;;;;;;;7.47;4.83;;;12.10;99.90;;;;;;5079248;28;20222;-85
2023/02/23 15:03:11;;;;;;;9.77;5.43;;;11.90;99.90;;;;;;5039692;28;20199;-84
2023/02/23 15:05:55;;;;;;;7.67;5.13;;;11.70;99.90;;;;;;5051472;28;20657;-86
2023/02/23 15:08:28;;;;;;;6.47;5.13;;;11.70;99.90;;;;;;5052145;28;20244;-85
2023/02/23 15:11:11;;;;;;;8.17;5.60;;;11.70;99.90;;;;;;5068096;28;20227;-86
2023/02/23 15:13:46;;;;;;;8.13;5.57;;;11.70;99.90;;;;;;5064464;28;20278;-85
2023/02/23 15:16:33;;;;;;;9.53;5.60;;;11.60;99.90;;;;;;5050405;28;20281;-85
2023/02/23 15:19:03;;;;;;;7.77;5.60;;;11.50;99.90;;;;;;5064928;28;20195;-85
2023/02/23 15:21:39;;;;;;;8.13;6.27;;;11.50;99.90;;;;;;5050185;28;20253;-85
2023/02/23 15:24:15;;;;;;;11.50;6.83;;;11.50;99.90;;;;;;5065667;28;20197;-85
2023/02/23 15:26:42;;;;;;;8.07;6.50;;;11.50;99.90;;;;;;5067335;28;21189;-85
2023/02/23 15:29:19;;;;;;;9.07;6.17;;;11.50;99.90;;;;;;5071009;28;20197;-86
2023/02/23 15:32:23;;;;;;;9.07;7.00;;;11.50;99.90;;;;;;5085340;28;20359;-85
2023/02/23 15:35:02;;;;;;;8.93;6.50;;;11.50;99.90;;;;;;5078966;28;20214;-85
2023/02/23 15:37:49;;;;;;;9.80;7.27;;;11.50;99.90;;;;;;5074273;28;20205;-85
2023/02/23 15:40:28;;;;;;;8.90;6.70;;;11.40;99.90;;;;;;5073235;28;20187;-85
2023/02/23 15:43:02;;;;;;;9.63;6.70;;;11.40;99.90;;;;;;5056852;28;20187;-85
2023/02/23 15:45:39;;;;;;;12.07;7.00;;;11.20;99.90;;;;;;5069196;28;20216;-85